KAID/AID METAR and TAF weather

Enter ICAO airport designator
Station Type Date Time Source
KAID METAR 2021/03/05 12:55 UTC NOAA

KAID 051255Z AUTO 00000KT 10SM CLR M06/M07 A3032 RMK AO2 T10571071


Station Type Date Time Source
KAID Decoded METAR 2021/03/05 12:55 UTC NOAA

Anderson Municipal, IN, United States (KAID) 40-07N 085-37W
Mar 05, 2021 - 07:55 AM EST / 2021.03.05 1255 UTC
Wind: Calm:0
Visibility: 10 mile(s):0
Sky conditions: clear
Temperature: 21.7 F (-5.7 C)
Dew Point: 19.2 F (-7.1 C)
Relative Humidity: 89%
Pressure (altimeter): 30.32 in. Hg (1026 hPa)
ob: KAID 051255Z AUTO 00000KT 10SM CLR M06/M07 A3032 RMK AO2 T10571071
cycle: 13

Station Type Date Time Source
KAID TAF UTC NOAA

Error!

Example: see airport list